sensor_id;sensor_type;location;lat;lon;timestamp;pressure;altitude;pressure_sealevel;temperature;humidity
64668;BME280;51077;42.716;23.344;2023-06-22T00:01:46;95785.78;;;22.13;55.94
64668;BME280;51077;42.716;23.344;2023-06-22T00:04:12;95787.09;;;22.12;56.35
64668;BME280;51077;42.716;23.344;2023-06-22T00:06:37;95788.78;;;22.07;56.52
64668;BME280;51077;42.716;23.344;2023-06-22T00:09:02;95782.31;;;22.04;56.36
64668;BME280;51077;42.716;23.344;2023-06-22T00:11:28;95780.09;;;22.03;56.52
64668;BME280;51077;42.716;23.344;2023-06-22T00:13:54;95777.13;;;22.01;56.50
64668;BME280;51077;42.716;23.344;2023-06-22T00:16:19;95775.47;;;21.98;56.25
64668;BME280;51077;42.716;23.344;2023-06-22T00:18:44;95778.84;;;21.96;56.51
64668;BME280;51077;42.716;23.344;2023-06-22T00:21:12;95773.13;;;21.94;56.57
64668;BME280;51077;42.716;23.344;2023-06-22T00:23:38;95772.94;;;21.92;56.71
64668;BME280;51077;42.716;23.344;2023-06-22T00:26:03;95770.16;;;21.92;56.50
64668;BME280;51077;42.716;23.344;2023-06-22T00:28:29;95765.13;;;21.91;56.63
64668;BME280;51077;42.716;23.344;2023-06-22T00:30:54;95762.91;;;21.89;56.90
64668;BME280;51077;42.716;23.344;2023-06-22T00:33:20;95762.75;;;21.87;57.09
64668;BME280;51077;42.716;23.344;2023-06-22T00:35:45;95762.56;;;21.85;56.90
64668;BME280;51077;42.716;23.344;2023-06-22T00:38:11;95764.63;;;21.84;56.68
64668;BME280;51077;42.716;23.344;2023-06-22T00:40:37;95763.16;;;21.83;57.25
64668;BME280;51077;42.716;23.344;2023-06-22T00:43:02;95753.13;;;21.80;56.75
64668;BME280;51077;42.716;23.344;2023-06-22T00:45:28;95763.56;;;21.80;56.71
64668;BME280;51077;42.716;23.344;2023-06-22T00:47:56;95762.09;;;21.79;57.03
64668;BME280;51077;42.716;23.344;2023-06-22T00:50:24;95750.78;;;21.77;56.73
64668;BME280;51077;42.716;23.344;2023-06-22T00:52:55;95763.09;;;21.74;57.04
64668;BME280;51077;42.716;23.344;2023-06-22T00:55:22;95760.84;;;21.72;56.87
64668;BME280;51077;42.716;23.344;2023-06-22T00:57:48;95765.56;;;21.70;56.74
64668;BME280;51077;42.716;23.344;2023-06-22T01:00:17;95760.53;;;21.68;56.89
64668;BME280;51077;42.716;23.344;2023-06-22T01:02:44;95777.13;;;21.66;57.22
64668;BME280;51077;42.716;23.344;2023-06-22T01:05:17;95782.56;;;21.64;57.10
64668;BME280;51077;42.716;23.344;2023-06-22T01:08:07;95767.69;;;21.62;57.05
64668;BME280;51077;42.716;23.344;2023-06-22T01:13:25;95774.41;;;21.58;57.09
64668;BME280;51077;42.716;23.344;2023-06-22T01:16:02;95768.66;;;21.56;57.50
64668;BME280;51077;42.716;23.344;2023-06-22T01:18:30;95775.41;;;21.53;57.21
64668;BME280;51077;42.716;23.344;2023-06-22T01:20:57;95774.66;;;21.53;57.36
64668;BME280;51077;42.716;23.344;2023-06-22T01:23:35;95774.50;;;21.51;57.52
64668;BME280;51077;42.716;23.344;2023-06-22T01:26:17;95773.59;;;21.48;57.55
64668;BME280;51077;42.716;23.344;2023-06-22T01:31:10;95778.84;;;21.44;57.26
64668;BME280;51077;42.716;23.344;2023-06-22T01:33:39;95789.84;;;21.42;57.48
64668;BME280;51077;42.716;23.344;2023-06-22T01:36:06;95781.28;;;21.40;57.48
64668;BME280;51077;42.716;23.344;2023-06-22T01:38:32;95786.00;;;21.38;57.56
64668;BME280;51077;42.716;23.344;2023-06-22T01:40:59;95785.81;;;21.36;57.63
64668;BME280;51077;42.716;23.344;2023-06-22T01:43:27;95794.03;;;21.33;57.44
64668;BME280;51077;42.716;23.344;2023-06-22T01:45:54;95793.84;;;21.31;57.84
64668;BME280;51077;42.716;23.344;2023-06-22T01:48:20;95787.50;;;21.31;57.59
64668;BME280;51077;42.716;23.344;2023-06-22T01:50:46;95789.38;;;21.28;57.94
64668;BME280;51077;42.716;23.344;2023-06-22T01:53:12;95791.25;;;21.26;57.71
64668;BME280;51077;42.716;23.344;2023-06-22T01:55:37;95797.41;;;21.24;57.83
64668;BME280;51077;42.716;23.344;2023-06-22T01:58:03;95805.03;;;21.24;57.97
64668;BME280;51077;42.716;23.344;2023-06-22T02:00:32;95796.50;;;21.22;57.78
64668;BME280;51077;42.716;23.344;2023-06-22T02:03:09;95803.22;;;21.19;58.04
64668;BME280;51077;42.716;23.344;2023-06-22T02:05:38;95805.28;;;21.18;57.98
64668;BME280;51077;42.716;23.344;2023-06-22T02:08:09;95812.72;;;21.16;58.00
64668;BME280;51077;42.716;23.344;2023-06-22T02:10:38;95815.38;;;21.14;58.25
64668;BME280;51077;42.716;23.344;2023-06-22T02:13:07;95814.63;;;21.13;58.32
64668;BME280;51077;42.716;23.344;2023-06-22T02:15:33;95801.81;;;21.10;58.08
64668;BME280;51077;42.716;23.344;2023-06-22T02:17:59;95796.22;;;21.10;58.28
64668;BME280;51077;42.716;23.344;2023-06-22T02:20:25;95795.31;;;21.07;58.18
64668;BME280;51077;42.716;23.344;2023-06-22T02:22:50;95801.47;;;21.06;58.31
64668;BME280;51077;42.716;23.344;2023-06-22T02:25:16;95804.81;;;21.04;58.21
64668;BME280;51077;42.716;23.344;2023-06-22T02:27:41;95806.16;;;21.03;58.27
64668;BME280;51077;42.716;23.344;2023-06-22T02:30:10;95794.78;;;21.01;58.57
64668;BME280;51077;42.716;23.344;2023-06-22T02:32:35;95786.25;;;20.99;58.65
64668;BME280;51077;42.716;23.344;2023-06-22T02:35:01;95786.81;;;20.98;58.51
64668;BME280;51077;42.716;23.344;2023-06-22T02:37:30;95795.03;;;20.96;58.55
64668;BME280;51077;42.716;23.344;2023-06-22T02:39:56;95797.63;;;20.94;58.71
64668;BME280;51077;42.716;23.344;2023-06-22T02:42:21;95798.22;;;20.92;58.39
64668;BME280;51077;42.716;23.344;2023-06-22T02:44:47;95800.28;;;20.92;58.53
64668;BME280;51077;42.716;23.344;2023-06-22T02:47:12;95798.06;;;20.90;58.80
64668;BME280;51077;42.716;23.344;2023-06-22T02:49:38;95796.41;;;20.87;58.86
64668;BME280;51077;42.716;23.344;2023-06-22T02:52:03;95808.13;;;20.86;58.70
64668;BME280;51077;42.716;23.344;2023-06-22T02:54:29;95800.31;;;20.84;58.85
64668;BME280;51077;42.716;23.344;2023-06-22T02:56:54;95795.47;;;20.84;58.70
64668;BME280;51077;42.716;23.344;2023-06-22T02:59:20;95800.88;;;20.82;58.75
64668;BME280;51077;42.716;23.344;2023-06-22T03:01:49;95802.94;;;20.82;58.75
64668;BME280;51077;42.716;23.344;2023-06-22T03:04:15;95800.69;;;20.80;58.80
64668;BME280;51077;42.716;23.344;2023-06-22T03:06:41;95802.75;;;20.80;58.75
64668;BME280;51077;42.716;23.344;2023-06-22T03:09:06;95806.28;;;20.80;58.96
64668;BME280;51077;42.716;23.344;2023-06-22T03:11:33;95813.19;;;20.79;58.92
64668;BME280;51077;42.716;23.344;2023-06-22T03:13:59;95822.47;;;20.82;58.99
64668;BME280;51077;42.716;23.344;2023-06-22T03:16:25;95820.22;;;20.80;58.99
64668;BME280;51077;42.716;23.344;2023-06-22T03:18:51;95822.47;;;20.82;59.05
64668;BME280;51077;42.716;23.344;2023-06-22T03:21:18;95826.00;;;20.82;58.99
64668;BME280;51077;42.716;23.344;2023-06-22T03:23:44;95831.75;;;20.84;58.96
64668;BME280;51077;42.716;23.344;2023-06-22T03:26:09;95826.91;;;20.85;58.70
64668;BME280;51077;42.716;23.344;2023-06-22T03:28:35;95830.03;;;20.89;58.56
64668;BME280;51077;42.716;23.344;2023-06-22T03:31:00;95831.34;;;20.88;58.75
64668;BME280;51077;42.716;23.344;2023-06-22T03:33:26;95833.59;;;20.90;58.54
64668;BME280;51077;42.716;23.344;2023-06-22T03:35:51;95834.50;;;20.92;58.41
64668;BME280;51077;42.716;23.344;2023-06-22T03:38:17;95839.69;;;20.96;58.74
64668;BME280;51077;42.716;23.344;2023-06-22T03:40:43;95839.09;;;20.97;58.64
64668;BME280;51077;42.716;23.344;2023-06-22T03:43:08;95845.59;;;21.00;58.33
64668;BME280;51077;42.716;23.344;2023-06-22T03:45:34;95838.72;;;21.01;58.27
64668;BME280;51077;42.716;23.344;2023-06-22T03:48:00;95838.13;;;21.02;58.53
64668;BME280;51077;42.716;23.344;2023-06-22T03:50:25;95846.13;;;21.06;58.13
64668;BME280;51077;42.716;23.344;2023-06-22T03:52:51;95855.41;;;21.08;58.08
64668;BME280;51077;42.716;23.344;2023-06-22T03:55:17;95858.94;;;21.09;58.03
64668;BME280;51077;42.716;23.344;2023-06-22T03:57:43;95864.13;;;21.13;58.07
64668;BME280;51077;42.716;23.344;2023-06-22T04:00:10;95856.66;;;21.15;57.74
64668;BME280;51077;42.716;23.344;2023-06-22T04:02:35;95861.69;;;21.17;57.79
64668;BME280;51077;42.716;23.344;2023-06-22T04:05:01;95859.06;;;21.19;57.94
64668;BME280;51077;42.716;23.344;2023-06-22T04:07:26;95857.75;;;21.20;57.93
64668;BME280;51077;42.716;23.344;2023-06-22T04:09:51;95857.94;;;21.22;57.63
64668;BME280;51077;42.716;23.344;2023-06-22T04:12:17;95856.78;;;21.25;57.53
64668;BME280;51077;42.716;23.344;2023-06-22T04:14:42;95846.53;;;21.27;57.44
64668;BME280;51077;42.716;23.344;2023-06-22T04:17:08;95848.91;;;21.31;57.61
64668;BME280;51077;42.716;23.344;2023-06-22T04:19:33;95840.19;;;21.35;57.53
64668;BME280;51077;42.716;23.344;2023-06-22T04:21:59;95843.31;;;21.39;57.51
64668;BME280;51077;42.716;23.344;2023-06-22T04:24:24;95826.31;;;21.44;57.31
64668;BME280;51077;42.716;23.344;2023-06-22T04:26:49;95832.22;;;21.48;57.29
64668;BME280;51077;42.716;23.344;2023-06-22T04:29:18;95821.22;;;21.50;57.21
64668;BME280;51077;42.716;23.344;2023-06-22T04:31:44;95825.13;;;21.55;57.19
64668;BME280;51077;42.716;23.344;2023-06-22T04:34:09;95830.28;;;21.58;56.63
64668;BME280;51077;42.716;23.344;2023-06-22T04:36:38;95840.88;;;21.60;56.90
64668;BME280;51077;42.716;23.344;2023-06-22T04:39:09;95837.84;;;21.66;57.03
64668;BME280;51077;42.716;23.344;2023-06-22T04:41:39;95840.25;;;21.69;56.85
64668;BME280;51077;42.716;23.344;2023-06-22T04:44:16;95839.09;;;21.72;56.81
64668;BME280;51077;42.716;23.344;2023-06-22T04:46:52;95835.88;;;21.76;56.72
64668;BME280;51077;42.716;23.344;2023-06-22T04:49:25;95842.38;;;21.78;56.70
64668;BME280;51077;42.716;23.344;2023-06-22T04:52:01;95848.66;;;21.87;56.64
64668;BME280;51077;42.716;23.344;2023-06-22T04:54:26;95852.50;;;21.91;56.47
64668;BME280;51077;42.716;23.344;2023-06-22T04:56:52;95855.97;;;21.99;56.42
64668;BME280;51077;42.716;23.344;2023-06-22T04:59:24;95849.53;;;22.06;56.07
64668;BME280;51077;42.716;23.344;2023-06-22T05:01:55;95857.31;;;22.16;56.07
64668;BME280;51077;42.716;23.344;2023-06-22T05:04:22;95848.84;;;22.23;55.81
64668;BME280;51077;42.716;23.344;2023-06-22T05:06:49;95853.03;;;22.32;55.62
64668;BME280;51077;42.716;23.344;2023-06-22T05:09:14;95845.28;;;22.40;55.52
64668;BME280;51077;42.716;23.344;2023-06-22T05:11:40;95845.94;;;22.48;55.41
64668;BME280;51077;42.716;23.344;2023-06-22T05:14:05;95847.31;;;22.57;55.18
64668;BME280;51077;42.716;23.344;2023-06-22T05:16:30;95849.28;;;22.64;54.94
64668;BME280;51077;42.716;23.344;2023-06-22T05:18:56;95854.94;;;22.74;54.70
64668;BME280;51077;42.716;23.344;2023-06-22T05:21:26;95854.84;;;22.81;54.76
64668;BME280;51077;42.716;23.344;2023-06-22T05:23:52;95856.38;;;22.92;54.60
64668;BME280;51077;42.716;23.344;2023-06-22T05:26:19;95857.03;;;23.00;53.94
64668;BME280;51077;42.716;23.344;2023-06-22T05:28:46;95860.59;;;23.11;54.19
64668;BME280;51077;42.716;23.344;2023-06-22T05:31:15;95864.19;;;23.21;54.14
64668;BME280;51077;42.716;23.344;2023-06-22T05:33:42;95868.38;;;23.29;53.74
64668;BME280;51077;42.716;23.344;2023-06-22T05:36:08;95872.53;;;23.38;53.54
64668;BME280;51077;42.716;23.344;2023-06-22T05:38:34;95876.09;;;23.48;53.35
64668;BME280;51077;42.716;23.344;2023-06-22T05:40:59;95870.50;;;23.58;53.32
64668;BME280;51077;42.716;23.344;2023-06-22T05:43:24;95875.44;;;23.67;53.14
64668;BME280;51077;42.716;23.344;2023-06-22T05:45:50;95883.84;;;23.77;53.14
64668;BME280;51077;42.716;23.344;2023-06-22T05:48:16;95876.78;;;23.86;52.74
64668;BME280;51077;42.716;23.344;2023-06-22T05:50:42;95881.72;;;23.95;52.69
64668;BME280;51077;42.716;23.344;2023-06-22T05:53:07;95878.19;;;24.04;52.61
64668;BME280;51077;42.716;23.344;2023-06-22T05:55:33;95874.63;;;24.13;52.52
64668;BME280;51077;42.716;23.344;2023-06-22T05:57:59;95875.97;;;24.22;52.33
64668;BME280;51077;42.716;23.344;2023-06-22T06:00:24;95878.63;;;24.29;52.16
64668;BME280;51077;42.716;23.344;2023-06-22T06:02:50;95867.44;;;24.39;51.69
64668;BME280;51077;42.716;23.344;2023-06-22T06:05:15;95873.66;;;24.47;51.75
64668;BME280;51077;42.716;23.344;2023-06-22T06:07:42;95866.56;;;24.56;51.70
64668;BME280;51077;42.716;23.344;2023-06-22T06:10:08;95868.59;;;24.65;51.29
64668;BME280;51077;42.716;23.344;2023-06-22T06:12:33;95867.13;;;24.74;51.42
64668;BME280;51077;42.716;23.344;2023-06-22T06:14:59;95864.88;;;24.82;50.85
64668;BME280;51077;42.716;23.344;2023-06-22T06:17:24;95866.03;;;24.89;50.66
64668;BME280;51077;42.716;23.344;2023-06-22T06:19:50;95865.88;;;24.96;50.53
64668;BME280;51077;42.716;23.344;2023-06-22T06:22:15;95863.47;;;25.02;50.55
64668;BME280;51077;42.716;23.344;2023-06-22T06:24:40;95868.97;;;25.10;50.14
64668;BME280;51077;42.716;23.344;2023-06-22T06:27:06;95865.09;;;25.15;50.15
64668;BME280;51077;42.716;23.344;2023-06-22T06:29:32;95868.63;;;25.25;49.69
64668;BME280;51077;42.716;23.344;2023-06-22T06:31:57;95862.81;;;25.33;49.65
64668;BME280;51077;42.716;23.344;2023-06-22T06:34:23;95854.94;;;25.41;49.04
64668;BME280;51077;42.716;23.344;2023-06-22T06:36:48;95854.91;;;25.51;48.86
64668;BME280;51077;42.716;23.344;2023-06-22T06:39:14;95852.78;;;25.61;49.03
64668;BME280;51077;42.716;23.344;2023-06-22T06:41:41;95845.63;;;25.70;48.71
64668;BME280;51077;42.716;23.344;2023-06-22T06:44:06;95851.22;;;25.79;48.73
64668;BME280;51077;42.716;23.344;2023-06-22T06:46:32;95849.22;;;25.92;48.40
64668;BME280;51077;42.716;23.344;2023-06-22T06:48:57;95847.06;;;26.02;48.17
64668;BME280;51077;42.716;23.344;2023-06-22T06:51:23;95848.50;;;26.13;47.79
64668;BME280;51077;42.716;23.344;2023-06-22T06:53:49;95838.63;;;26.23;47.73
64668;BME280;51077;42.716;23.344;2023-06-22T06:56:14;95838.69;;;26.35;47.56
64668;BME280;51077;42.716;23.344;2023-06-22T06:58:43;95842.91;;;26.46;47.08
64668;BME280;51077;42.716;23.344;2023-06-22T07:01:10;95839.25;;;26.55;46.71
64668;BME280;51077;42.716;23.344;2023-06-22T07:03:37;95839.06;;;26.63;46.79
64668;BME280;51077;42.716;23.344;2023-06-22T07:06:02;95841.19;;;26.74;46.51
64668;BME280;51077;42.716;23.344;2023-06-22T07:08:28;95834.09;;;26.85;46.21
64668;BME280;51077;42.716;23.344;2023-06-22T07:10:54;95837.19;;;27.00;45.87
64668;BME280;51077;42.716;23.344;2023-06-22T07:13:19;95835.16;;;27.13;45.91
64668;BME280;51077;42.716;23.344;2023-06-22T07:15:45;95838.69;;;27.25;45.65
64668;BME280;51077;42.716;23.344;2023-06-22T07:18:10;95839.56;;;27.39;45.33
64668;BME280;51077;42.716;23.344;2023-06-22T07:20:36;95850.34;;;27.54;45.33
64668;BME280;51077;42.716;23.344;2023-06-22T07:23:02;95842.00;;;27.68;44.73
64668;BME280;51077;42.716;23.344;2023-06-22T07:25:27;95842.00;;;27.80;44.24
64668;BME280;51077;42.716;23.344;2023-06-22T07:28:02;95834.38;;;27.94;44.45
64668;BME280;51077;42.716;23.344;2023-06-22T07:30:29;95841.34;;;28.05;44.32
64668;BME280;51077;42.716;23.344;2023-06-22T07:32:55;95839.97;;;28.18;43.92
64668;BME280;51077;42.716;23.344;2023-06-22T07:35:20;95846.91;;;28.28;43.58
64668;BME280;51077;42.716;23.344;2023-06-22T07:37:46;95848.38;;;28.41;43.47
64668;BME280;51077;42.716;23.344;2023-06-22T07:40:12;95842.69;;;28.53;43.30
64668;BME280;51077;42.716;23.344;2023-06-22T07:42:37;95845.56;;;28.67;43.16
64668;BME280;51077;42.716;23.344;2023-06-22T07:45:04;95847.06;;;28.81;42.72
64668;BME280;51077;42.716;23.344;2023-06-22T07:47:29;95850.09;;;28.97;42.63
64668;BME280;51077;42.716;23.344;2023-06-22T07:49:57;95838.31;;;29.15;42.23
64668;BME280;51077;42.716;23.344;2023-06-22T07:52:24;95833.00;;;29.35;42.04
64668;BME280;51077;42.716;23.344;2023-06-22T07:54:51;95833.31;;;29.54;41.75
64668;BME280;51077;42.716;23.344;2023-06-22T07:57:16;95832.94;;;29.74;41.26
64668;BME280;51077;42.716;23.344;2023-06-22T07:59:41;95824.44;;;29.88;41.21
64668;BME280;51077;42.716;23.344;2023-06-22T08:02:07;95824.41;;;30.01;41.05
64668;BME280;51077;42.716;23.344;2023-06-22T08:04:34;95818.09;;;30.17;40.29
64668;BME280;51077;42.716;23.344;2023-06-22T08:07:00;95820.16;;;30.30;40.19
64668;BME280;51077;42.716;23.344;2023-06-22T08:09:28;95820.88;;;30.44;40.08
64668;BME280;51077;42.716;23.344;2023-06-22T08:11:54;95822.41;;;30.61;40.04
64668;BME280;51077;42.716;23.344;2023-06-22T08:14:20;95809.72;;;30.78;39.20
64668;BME280;51077;42.716;23.344;2023-06-22T08:16:46;95808.56;;;30.99;39.44
64668;BME280;51077;42.716;23.344;2023-06-22T08:19:12;95810.06;;;31.16;38.94
64668;BME280;51077;42.716;23.344;2023-06-22T08:21:37;95808.16;;;31.36;38.60
64668;BME280;51077;42.716;23.344;2023-06-22T08:24:03;95798.88;;;31.51;37.89
64668;BME280;51077;42.716;23.344;2023-06-22T08:26:29;95801.06;;;31.69;38.07
64668;BME280;51077;42.716;23.344;2023-06-22T08:28:54;95800.13;;;31.80;37.78
64668;BME280;51077;42.716;23.344;2023-06-22T08:31:19;95803.41;;;31.90;37.50
64668;BME280;51077;42.716;23.344;2023-06-22T08:33:45;95799.38;;;31.95;37.71
64668;BME280;51077;42.716;23.344;2023-06-22T08:36:11;95806.59;;;31.98;37.40
64668;BME280;51077;42.716;23.344;2023-06-22T08:38:38;95813.72;;;31.99;37.19
64668;BME280;51077;42.716;23.344;2023-06-22T08:41:03;95806.03;;;32.02;37.57
64668;BME280;51077;42.716;23.344;2023-06-22T08:43:29;95808.16;;;32.01;37.17
64668;BME280;51077;42.716;23.344;2023-06-22T08:45:54;95811.16;;;32.06;37.64
64668;BME280;51077;42.716;23.344;2023-06-22T08:48:20;95802.97;;;32.14;37.08
64668;BME280;51077;42.716;23.344;2023-06-22T08:50:45;95804.28;;;32.28;36.81
64668;BME280;51077;42.716;23.344;2023-06-22T08:53:10;95804.16;;;32.42;36.50
64668;BME280;51077;42.716;23.344;2023-06-22T08:55:36;95792.72;;;32.58;36.67
64668;BME280;51077;42.716;23.344;2023-06-22T08:58:01;95788.41;;;32.75;35.90
64668;BME280;51077;42.716;23.344;2023-06-22T09:00:27;95783.34;;;32.91;35.61
64668;BME280;51077;42.716;23.344;2023-06-22T09:02:54;95781.78;;;33.06;35.42
64668;BME280;51077;42.716;23.344;2023-06-22T09:05:24;95783.09;;;33.23;35.25
64668;BME280;51077;42.716;23.344;2023-06-22T09:07:51;95782.06;;;33.34;35.08
64668;BME280;51077;42.716;23.344;2023-06-22T09:10:17;95781.16;;;33.47;34.74
64668;BME280;51077;42.716;23.344;2023-06-22T09:12:42;95775.25;;;33.61;34.56
64668;BME280;51077;42.716;23.344;2023-06-22T09:15:08;95783.56;;;33.75;34.49
64668;BME280;51077;42.716;23.344;2023-06-22T09:17:34;95782.38;;;33.82;34.36
64668;BME280;51077;42.716;23.344;2023-06-22T09:20:01;95779.88;;;33.92;34.24
64668;BME280;51077;42.716;23.344;2023-06-22T09:22:27;95777.44;;;34.05;34.00
64668;BME280;51077;42.716;23.344;2023-06-22T09:24:55;95784.34;;;34.19;33.58
64668;BME280;51077;42.716;23.344;2023-06-22T09:27:21;95787.53;;;34.30;34.03
64668;BME280;51077;42.716;23.344;2023-06-22T09:29:47;95784.56;;;34.47;33.33
64668;BME280;51077;42.716;23.344;2023-06-22T09:32:13;95780.47;;;34.53;33.23
64668;BME280;51077;42.716;23.344;2023-06-22T09:34:38;95783.56;;;34.61;33.49
64668;BME280;51077;42.716;23.344;2023-06-22T09:37:04;95782.41;;;34.70;33.10
64668;BME280;51077;42.716;23.344;2023-06-22T09:39:29;95774.22;;;34.82;32.46
64668;BME280;51077;42.716;23.344;2023-06-22T09:41:55;95783.88;;;34.95;32.54
64668;BME280;51077;42.716;23.344;2023-06-22T09:44:20;95770.81;;;35.10;32.14
64668;BME280;51077;42.716;23.344;2023-06-22T09:46:45;95781.66;;;35.15;31.43
64668;BME280;51077;42.716;23.344;2023-06-22T09:49:11;95771.06;;;35.18;31.32
64668;BME280;51077;42.716;23.344;2023-06-22T09:51:36;95766.84;;;35.21;31.42
64668;BME280;51077;42.716;23.344;2023-06-22T09:54:01;95762.88;;;35.32;31.52
64668;BME280;51077;42.716;23.344;2023-06-22T09:56:27;95760.16;;;35.36;31.45
64668;BME280;51077;42.716;23.344;2023-06-22T09:58:53;95758.91;;;35.43;31.01
64668;BME280;51077;42.716;23.344;2023-06-22T10:01:19;95762.69;;;35.50;31.04
64668;BME280;51077;42.716;23.344;2023-06-22T10:03:45;95758.69;;;35.61;31.21
64668;BME280;51077;42.716;23.344;2023-06-22T10:06:11;95755.41;;;35.71;30.60
64668;BME280;51077;42.716;23.344;2023-06-22T10:08:36;95755.56;;;35.77;30.46
64668;BME280;51077;42.716;23.344;2023-06-22T10:11:03;95751.47;;;35.84;30.38
64668;BME280;51077;42.716;23.344;2023-06-22T10:13:28;95753.13;;;35.93;30.73
64668;BME280;51077;42.716;23.344;2023-06-22T10:15:54;95742.69;;;36.04;30.70
64668;BME280;51077;42.716;23.344;2023-06-22T10:18:20;95749.50;;;36.19;30.20
64668;BME280;51077;42.716;23.344;2023-06-22T10:20:48;95744.13;;;36.33;30.19
64668;BME280;51077;42.716;23.344;2023-06-22T10:23:14;95747.28;;;36.45;29.51
64668;BME280;51077;42.716;23.344;2023-06-22T10:25:39;95745.75;;;36.42;29.22
64668;BME280;51077;42.716;23.344;2023-06-22T10:28:05;95738.84;;;36.52;29.05
64668;BME280;51077;42.716;23.344;2023-06-22T10:30:30;95743.50;;;36.67;29.32
64668;BME280;51077;42.716;23.344;2023-06-22T10:32:56;95740.81;;;36.75;29.11
64668;BME280;51077;42.716;23.344;2023-06-22T10:35:21;95733.94;;;36.88;28.57
64668;BME280;51077;42.716;23.344;2023-06-22T10:37:47;95730.53;;;36.96;28.10
64668;BME280;51077;42.716;23.344;2023-06-22T10:40:14;95732.75;;;36.99;28.60
64668;BME280;51077;42.716;23.344;2023-06-22T10:42:40;95726.81;;;36.89;28.24
64668;BME280;51077;42.716;23.344;2023-06-22T10:45:07;95723.59;;;36.73;28.62
64668;BME280;51077;42.716;23.344;2023-06-22T10:47:33;95730.13;;;36.45;28.91
64668;BME280;51077;42.716;23.344;2023-06-22T10:49:58;95718.59;;;36.41;29.45
64668;BME280;51077;42.716;23.344;2023-06-22T10:52:23;95711.78;;;36.57;29.16
64668;BME280;51077;42.716;23.344;2023-06-22T10:54:49;95716.97;;;36.64;29.45
64668;BME280;51077;42.716;23.344;2023-06-22T10:57:14;95714.16;;;36.66;28.48
64668;BME280;51077;42.716;23.344;2023-06-22T10:59:40;95716.06;;;36.56;30.05
64668;BME280;51077;42.716;23.344;2023-06-22T11:02:05;95716.38;;;36.70;28.89
64668;BME280;51077;42.716;23.344;2023-06-22T11:04:31;95721.13;;;36.91;28.00
64668;BME280;51077;42.716;23.344;2023-06-22T11:06:56;95715.75;;;37.06;27.79
64668;BME280;51077;42.716;23.344;2023-06-22T11:09:22;95716.53;;;37.10;27.48
64668;BME280;51077;42.716;23.344;2023-06-22T11:11:48;95715.69;;;37.04;26.76
64668;BME280;51077;42.716;23.344;2023-06-22T11:14:14;95711.31;;;37.01;26.40
64668;BME280;51077;42.716;23.344;2023-06-22T11:16:40;95710.69;;;37.04;26.45
64668;BME280;51077;42.716;23.344;2023-06-22T11:19:05;95702.47;;;36.88;26.87
64668;BME280;51077;42.716;23.344;2023-06-22T11:21:31;95701.47;;;37.08;26.57
64668;BME280;51077;42.716;23.344;2023-06-22T11:23:57;95702.25;;;37.10;26.55
64668;BME280;51077;42.716;23.344;2023-06-22T11:26:24;95698.94;;;37.26;26.83
64668;BME280;51077;42.716;23.344;2023-06-22T11:28:50;95693.56;;;37.06;26.68
64668;BME280;51077;42.716;23.344;2023-06-22T11:31:15;95686.66;;;36.85;26.89
64668;BME280;51077;42.716;23.344;2023-06-22T11:33:41;95691.63;;;36.48;27.16
64668;BME280;51077;42.716;23.344;2023-06-22T11:36:06;95685.81;;;36.14;27.68
64668;BME280;51077;42.716;23.344;2023-06-22T11:38:32;95686.72;;;35.95;27.96
64668;BME280;51077;42.716;23.344;2023-06-22T11:40:58;95686.75;;;35.67;28.32
64668;BME280;51077;42.716;23.344;2023-06-22T11:43:24;95692.00;;;35.48;28.08
64668;BME280;51077;42.716;23.344;2023-06-22T11:45:50;95686.03;;;35.40;27.94
64668;BME280;51077;42.716;23.344;2023-06-22T11:48:15;95684.75;;;35.45;27.96
64668;BME280;51077;42.716;23.344;2023-06-22T11:50:41;95673.09;;;35.63;27.65
64668;BME280;51077;42.716;23.344;2023-06-22T11:53:06;95667.84;;;35.82;27.51
64668;BME280;51077;42.716;23.344;2023-06-22T11:55:31;95670.09;;;35.87;27.21
64668;BME280;51077;42.716;23.344;2023-06-22T11:57:57;95671.47;;;35.84;27.64
64668;BME280;51077;42.716;23.344;2023-06-22T12:00:29;95677.00;;;35.76;27.83
64668;BME280;51077;42.716;23.344;2023-06-22T12:02:55;95674.78;;;35.46;27.38
64668;BME280;51077;42.716;23.344;2023-06-22T12:05:21;95675.63;;;35.25;27.91
64668;BME280;51077;42.716;23.344;2023-06-22T12:07:47;95675.16;;;35.07;28.64
64668;BME280;51077;42.716;23.344;2023-06-22T12:10:13;95663.00;;;34.82;28.86
64668;BME280;51077;42.716;23.344;2023-06-22T12:12:38;95676.63;;;34.60;29.48
64668;BME280;51077;42.716;23.344;2023-06-22T12:15:04;95681.69;;;34.39;29.78
64668;BME280;51077;42.716;23.344;2023-06-22T12:17:31;95685.31;;;34.18;30.14
64668;BME280;51077;42.716;23.344;2023-06-22T12:19:56;95685.97;;;33.94;30.90
64668;BME280;51077;42.716;23.344;2023-06-22T12:22:21;95692.91;;;33.67;31.21
64668;BME280;51077;42.716;23.344;2023-06-22T12:24:47;95702.50;;;33.36;31.95
64668;BME280;51077;42.716;23.344;2023-06-22T12:27:12;95714.25;;;33.07;32.48
64668;BME280;51077;42.716;23.344;2023-06-22T12:29:37;95718.28;;;32.82;33.15
64668;BME280;51077;42.716;23.344;2023-06-22T12:32:03;95727.59;;;32.46;34.63
64668;BME280;51077;42.716;23.344;2023-06-22T12:34:29;95726.38;;;32.16;35.51
64668;BME280;51077;42.716;23.344;2023-06-22T12:36:54;95743.19;;;31.76;35.54
64668;BME280;51077;42.716;23.344;2023-06-22T12:39:20;95736.94;;;31.46;37.26
64668;BME280;51077;42.716;23.344;2023-06-22T12:41:45;95726.09;;;31.09;37.87
64668;BME280;51077;42.716;23.344;2023-06-22T12:44:11;95723.25;;;30.77;38.03
64668;BME280;51077;42.716;23.344;2023-06-22T12:46:36;95723.84;;;30.44;39.11
64668;BME280;51077;42.716;23.344;2023-06-22T12:49:04;95735.41;;;30.04;40.20
64668;BME280;51077;42.716;23.344;2023-06-22T12:51:29;95741.13;;;29.77;40.88